sensor_id;sensor_type;location;lat;lon;timestamp;P1;durP1;ratioP1;P2;durP2;ratioP2
19621;SDS011;9958;33.196;-97.114;2023-03-21T00:02:19;2.15;;;1.60;;
19621;SDS011;9958;33.196;-97.114;2023-03-21T00:04:50;4.47;;;2.20;;
19621;SDS011;9958;33.196;-97.114;2023-03-21T00:07:18;2.30;;;2.00;;
19621;SDS011;9958;33.196;-97.114;2023-03-21T00:09:46;2.55;;;1.92;;
19621;SDS011;9958;33.196;-97.114;2023-03-21T00:12:15;2.00;;;1.75;;
19621;SDS011;9958;33.196;-97.114;2023-03-21T00:14:45;2.00;;;1.80;;
19621;SDS011;9958;33.196;-97.114;2023-03-21T00:17:13;2.53;;;1.98;;
19621;SDS011;9958;33.196;-97.114;2023-03-21T00:19:42;3.38;;;1.92;;
19621;SDS011;9958;33.196;-97.114;2023-03-21T00:22:12;3.03;;;1.80;;
19621;SDS011;9958;33.196;-97.114;2023-03-21T00:24:40;5.78;;;1.95;;
19621;SDS011;9958;33.196;-97.114;2023-03-21T00:27:09;2.58;;;1.90;;
19621;SDS011;9958;33.196;-97.114;2023-03-21T00:29:38;5.05;;;2.20;;
19621;SDS011;9958;33.196;-97.114;2023-03-21T00:32:06;3.70;;;2.05;;
19621;SDS011;9958;33.196;-97.114;2023-03-21T00:34:35;3.30;;;2.17;;
19621;SDS011;9958;33.196;-97.114;2023-03-21T00:37:03;4.07;;;1.73;;
19621;SDS011;9958;33.196;-97.114;2023-03-21T00:39:35;2.67;;;1.75;;
19621;SDS011;9958;33.196;-97.114;2023-03-21T00:42:03;3.47;;;1.70;;
19621;SDS011;9958;33.196;-97.114;2023-03-21T00:44:32;2.33;;;2.05;;
19621;SDS011;9958;33.196;-97.114;2023-03-21T00:47:01;4.85;;;1.88;;
19621;SDS011;9958;33.196;-97.114;2023-03-21T00:49:30;2.67;;;1.77;;
19621;SDS011;9958;33.196;-97.114;2023-03-21T00:51:59;3.65;;;1.92;;
19621;SDS011;9958;33.196;-97.114;2023-03-21T00:54:27;7.03;;;2.30;;
19621;SDS011;9958;33.196;-97.114;2023-03-21T00:56:57;4.55;;;1.83;;
19621;SDS011;9958;33.196;-97.114;2023-03-21T00:59:26;1.80;;;1.70;;
19621;SDS011;9958;33.196;-97.114;2023-03-21T01:01:55;2.17;;;1.60;;
19621;SDS011;9958;33.196;-97.114;2023-03-21T01:04:24;2.28;;;1.90;;
19621;SDS011;9958;33.196;-97.114;2023-03-21T01:06:53;2.17;;;1.70;;
19621;SDS011;9958;33.196;-97.114;2023-03-21T01:09:22;1.98;;;1.80;;
19621;SDS011;9958;33.196;-97.114;2023-03-21T01:11:51;2.08;;;1.70;;
19621;SDS011;9958;33.196;-97.114;2023-03-21T01:14:21;2.45;;;1.45;;
19621;SDS011;9958;33.196;-97.114;2023-03-21T01:16:50;2.80;;;1.88;;
19621;SDS011;9958;33.196;-97.114;2023-03-21T01:19:20;3.50;;;2.00;;
19621;SDS011;9958;33.196;-97.114;2023-03-21T01:21:52;2.15;;;1.70;;
19621;SDS011;9958;33.196;-97.114;2023-03-21T01:24:21;3.85;;;1.90;;
19621;SDS011;9958;33.196;-97.114;2023-03-21T01:26:49;2.25;;;1.85;;
19621;SDS011;9958;33.196;-97.114;2023-03-21T01:29:17;1.60;;;1.48;;
19621;SDS011;9958;33.196;-97.114;2023-03-21T01:31:47;3.78;;;1.67;;
19621;SDS011;9958;33.196;-97.114;2023-03-21T01:34:16;3.80;;;1.85;;
19621;SDS011;9958;33.196;-97.114;2023-03-21T01:36:44;2.83;;;1.63;;
19621;SDS011;9958;33.196;-97.114;2023-03-21T01:39:12;2.25;;;1.98;;
19621;SDS011;9958;33.196;-97.114;2023-03-21T01:41:41;2.15;;;1.63;;
19621;SDS011;9958;33.196;-97.114;2023-03-21T01:44:11;1.60;;;1.50;;
19621;SDS011;9958;33.196;-97.114;2023-03-21T01:46:42;2.17;;;1.95;;
19621;SDS011;9958;33.196;-97.114;2023-03-21T01:49:16;2.83;;;1.50;;
19621;SDS011;9958;33.196;-97.114;2023-03-21T01:51:51;2.35;;;1.65;;
19621;SDS011;9958;33.196;-97.114;2023-03-21T01:54:23;1.90;;;1.50;;
19621;SDS011;9958;33.196;-97.114;2023-03-21T01:56:57;2.28;;;1.73;;
19621;SDS011;9958;33.196;-97.114;2023-03-21T01:59:27;3.45;;;1.88;;
19621;SDS011;9958;33.196;-97.114;2023-03-21T02:02:02;2.05;;;1.73;;
19621;SDS011;9958;33.196;-97.114;2023-03-21T02:04:36;2.60;;;1.73;;
19621;SDS011;9958;33.196;-97.114;2023-03-21T02:07:05;3.85;;;1.95;;
19621;SDS011;9958;33.196;-97.114;2023-03-21T02:09:36;2.70;;;1.77;;
19621;SDS011;9958;33.196;-97.114;2023-03-21T02:12:07;3.53;;;1.90;;
19621;SDS011;9958;33.196;-97.114;2023-03-21T02:14:35;2.15;;;1.70;;
19621;SDS011;9958;33.196;-97.114;2023-03-21T02:17:07;2.13;;;1.80;;
19621;SDS011;9958;33.196;-97.114;2023-03-21T02:19:56;2.70;;;2.25;;
19621;SDS011;9958;33.196;-97.114;2023-03-21T02:22:57;4.45;;;2.00;;
19621;SDS011;9958;33.196;-97.114;2023-03-21T02:28:32;2.40;;;2.00;;
19621;SDS011;9958;33.196;-97.114;2023-03-21T02:31:22;2.65;;;1.88;;
19621;SDS011;9958;33.196;-97.114;2023-03-21T02:37:10;3.05;;;1.85;;
19621;SDS011;9958;33.196;-97.114;2023-03-21T02:39:49;4.10;;;2.17;;
19621;SDS011;9958;33.196;-97.114;2023-03-21T02:42:33;2.67;;;2.00;;
19621;SDS011;9958;33.196;-97.114;2023-03-21T02:45:13;2.53;;;2.17;;
19621;SDS011;9958;33.196;-97.114;2023-03-21T02:47:46;3.63;;;1.90;;
19621;SDS011;9958;33.196;-97.114;2023-03-21T02:50:17;2.40;;;2.20;;
19621;SDS011;9958;33.196;-97.114;2023-03-21T02:52:52;3.00;;;2.08;;
19621;SDS011;9958;33.196;-97.114;2023-03-21T02:55:21;4.95;;;2.28;;
19621;SDS011;9958;33.196;-97.114;2023-03-21T02:57:52;3.97;;;2.13;;
19621;SDS011;9958;33.196;-97.114;2023-03-21T03:00:22;1.83;;;1.58;;
19621;SDS011;9958;33.196;-97.114;2023-03-21T03:02:54;3.22;;;2.13;;
19621;SDS011;9958;33.196;-97.114;2023-03-21T03:05:24;2.70;;;2.13;;
19621;SDS011;9958;33.196;-97.114;2023-03-21T03:07:58;4.88;;;1.95;;
19621;SDS011;9958;33.196;-97.114;2023-03-21T03:10:38;3.13;;;1.90;;
19621;SDS011;9958;33.196;-97.114;2023-03-21T03:13:18;3.05;;;2.05;;
19621;SDS011;9958;33.196;-97.114;2023-03-21T03:16:00;2.67;;;2.08;;
19621;SDS011;9958;33.196;-97.114;2023-03-21T03:18:37;3.53;;;2.20;;
19621;SDS011;9958;33.196;-97.114;2023-03-21T03:21:13;4.28;;;2.42;;
19621;SDS011;9958;33.196;-97.114;2023-03-21T03:23:47;4.10;;;2.67;;
19621;SDS011;9958;33.196;-97.114;2023-03-21T03:26:18;2.95;;;2.00;;
19621;SDS011;9958;33.196;-97.114;2023-03-21T03:28:50;6.65;;;2.22;;
19621;SDS011;9958;33.196;-97.114;2023-03-21T03:31:22;4.15;;;2.30;;
19621;SDS011;9958;33.196;-97.114;2023-03-21T03:33:53;3.45;;;2.47;;
19621;SDS011;9958;33.196;-97.114;2023-03-21T03:36:24;4.43;;;2.42;;
19621;SDS011;9958;33.196;-97.114;2023-03-21T03:39:03;5.50;;;2.70;;
19621;SDS011;9958;33.196;-97.114;2023-03-21T03:41:34;4.43;;;2.47;;
19621;SDS011;9958;33.196;-97.114;2023-03-21T03:44:08;4.95;;;2.25;;
19621;SDS011;9958;33.196;-97.114;2023-03-21T03:46:38;3.50;;;2.47;;
19621;SDS011;9958;33.196;-97.114;2023-03-21T03:49:12;3.00;;;2.30;;
19621;SDS011;9958;33.196;-97.114;2023-03-21T03:51:42;3.17;;;2.47;;
19621;SDS011;9958;33.196;-97.114;2023-03-21T03:54:18;4.50;;;2.35;;
19621;SDS011;9958;33.196;-97.114;2023-03-21T03:56:49;4.05;;;2.30;;
19621;SDS011;9958;33.196;-97.114;2023-03-21T03:59:18;3.72;;;2.50;;
19621;SDS011;9958;33.196;-97.114;2023-03-21T04:01:48;4.22;;;2.25;;
19621;SDS011;9958;33.196;-97.114;2023-03-21T04:04:17;3.55;;;2.10;;
19621;SDS011;9958;33.196;-97.114;2023-03-21T04:06:47;2.55;;;2.00;;
19621;SDS011;9958;33.196;-97.114;2023-03-21T04:09:19;3.47;;;2.40;;
19621;SDS011;9958;33.196;-97.114;2023-03-21T04:11:47;3.83;;;2.35;;
19621;SDS011;9958;33.196;-97.114;2023-03-21T04:14:16;2.92;;;2.20;;
19621;SDS011;9958;33.196;-97.114;2023-03-21T04:16:44;2.95;;;2.25;;
19621;SDS011;9958;33.196;-97.114;2023-03-21T04:19:13;5.40;;;2.55;;
19621;SDS011;9958;33.196;-97.114;2023-03-21T04:21:42;3.03;;;2.42;;
19621;SDS011;9958;33.196;-97.114;2023-03-21T04:24:11;4.20;;;2.15;;
19621;SDS011;9958;33.196;-97.114;2023-03-21T04:26:42;3.65;;;2.40;;
19621;SDS011;9958;33.196;-97.114;2023-03-21T04:29:10;5.00;;;2.22;;
19621;SDS011;9958;33.196;-97.114;2023-03-21T04:31:38;4.47;;;2.13;;
19621;SDS011;9958;33.196;-97.114;2023-03-21T04:34:07;4.63;;;2.33;;
19621;SDS011;9958;33.196;-97.114;2023-03-21T04:36:36;3.28;;;2.08;;
19621;SDS011;9958;33.196;-97.114;2023-03-21T04:39:07;3.20;;;2.25;;
19621;SDS011;9958;33.196;-97.114;2023-03-21T04:41:38;5.80;;;2.35;;
19621;SDS011;9958;33.196;-97.114;2023-03-21T04:44:08;4.55;;;2.30;;
19621;SDS011;9958;33.196;-97.114;2023-03-21T04:46:37;5.30;;;2.40;;
19621;SDS011;9958;33.196;-97.114;2023-03-21T04:49:06;2.28;;;1.83;;
19621;SDS011;9958;33.196;-97.114;2023-03-21T04:51:34;3.00;;;2.55;;
19621;SDS011;9958;33.196;-97.114;2023-03-21T04:54:03;2.92;;;2.25;;
19621;SDS011;9958;33.196;-97.114;2023-03-21T04:56:31;4.25;;;2.03;;
19621;SDS011;9958;33.196;-97.114;2023-03-21T04:59:01;4.18;;;2.28;;
19621;SDS011;9958;33.196;-97.114;2023-03-21T05:01:33;2.75;;;1.88;;
19621;SDS011;9958;33.196;-97.114;2023-03-21T05:04:02;3.50;;;2.63;;
19621;SDS011;9958;33.196;-97.114;2023-03-21T05:06:31;4.55;;;2.20;;
19621;SDS011;9958;33.196;-97.114;2023-03-21T05:08:59;3.03;;;2.08;;
19621;SDS011;9958;33.196;-97.114;2023-03-21T05:11:30;2.53;;;2.20;;
19621;SDS011;9958;33.196;-97.114;2023-03-21T05:14:00;3.15;;;2.10;;
19621;SDS011;9958;33.196;-97.114;2023-03-21T05:16:28;2.45;;;1.75;;
19621;SDS011;9958;33.196;-97.114;2023-03-21T05:18:59;4.47;;;2.30;;
19621;SDS011;9958;33.196;-97.114;2023-03-21T05:21:29;3.80;;;2.30;;
19621;SDS011;9958;33.196;-97.114;2023-03-21T05:23:58;2.35;;;2.00;;
19621;SDS011;9958;33.196;-97.114;2023-03-21T05:26:28;2.88;;;1.90;;
19621;SDS011;9958;33.196;-97.114;2023-03-21T05:28:56;3.22;;;2.60;;
19621;SDS011;9958;33.196;-97.114;2023-03-21T05:31:24;3.88;;;2.15;;
19621;SDS011;9958;33.196;-97.114;2023-03-21T05:33:53;3.33;;;2.10;;
19621;SDS011;9958;33.196;-97.114;2023-03-21T05:36:23;4.15;;;2.40;;
19621;SDS011;9958;33.196;-97.114;2023-03-21T05:38:51;4.03;;;2.25;;
19621;SDS011;9958;33.196;-97.114;2023-03-21T05:41:19;3.78;;;2.50;;
19621;SDS011;9958;33.196;-97.114;2023-03-21T05:43:48;3.17;;;1.90;;
19621;SDS011;9958;33.196;-97.114;2023-03-21T05:46:16;2.25;;;1.67;;
19621;SDS011;9958;33.196;-97.114;2023-03-21T05:48:44;3.85;;;2.00;;
19621;SDS011;9958;33.196;-97.114;2023-03-21T05:51:12;2.17;;;1.73;;
19621;SDS011;9958;33.196;-97.114;2023-03-21T05:53:43;3.85;;;2.22;;
19621;SDS011;9958;33.196;-97.114;2023-03-21T05:56:12;7.20;;;2.08;;
19621;SDS011;9958;33.196;-97.114;2023-03-21T05:58:40;2.92;;;2.40;;
19621;SDS011;9958;33.196;-97.114;2023-03-21T06:01:08;2.88;;;1.95;;
19621;SDS011;9958;33.196;-97.114;2023-03-21T06:03:36;2.50;;;2.15;;
19621;SDS011;9958;33.196;-97.114;2023-03-21T06:06:05;2.58;;;1.70;;
19621;SDS011;9958;33.196;-97.114;2023-03-21T06:08:34;2.63;;;1.55;;
19621;SDS011;9958;33.196;-97.114;2023-03-21T06:11:04;2.35;;;1.40;;
19621;SDS011;9958;33.196;-97.114;2023-03-21T06:13:38;1.73;;;1.45;;
19621;SDS011;9958;33.196;-97.114;2023-03-21T06:16:07;2.35;;;1.33;;
19621;SDS011;9958;33.196;-97.114;2023-03-21T06:18:35;2.08;;;1.40;;
19621;SDS011;9958;33.196;-97.114;2023-03-21T06:21:03;5.00;;;1.63;;
19621;SDS011;9958;33.196;-97.114;2023-03-21T06:23:32;1.83;;;1.40;;
19621;SDS011;9958;33.196;-97.114;2023-03-21T06:26:01;3.10;;;1.33;;
19621;SDS011;9958;33.196;-97.114;2023-03-21T06:28:32;2.00;;;1.50;;
19621;SDS011;9958;33.196;-97.114;2023-03-21T06:31:00;4.18;;;1.60;;
19621;SDS011;9958;33.196;-97.114;2023-03-21T06:33:29;2.47;;;1.38;;
19621;SDS011;9958;33.196;-97.114;2023-03-21T06:35:57;2.53;;;1.40;;
19621;SDS011;9958;33.196;-97.114;2023-03-21T06:38:25;1.85;;;1.33;;
19621;SDS011;9958;33.196;-97.114;2023-03-21T06:40:54;2.40;;;1.50;;
19621;SDS011;9958;33.196;-97.114;2023-03-21T06:43:24;1.40;;;1.30;;
19621;SDS011;9958;33.196;-97.114;2023-03-21T06:45:52;5.68;;;1.58;;
19621;SDS011;9958;33.196;-97.114;2023-03-21T06:48:20;2.78;;;1.80;;
19621;SDS011;9958;33.196;-97.114;2023-03-21T06:50:49;4.03;;;1.60;;
19621;SDS011;9958;33.196;-97.114;2023-03-21T06:53:18;4.57;;;1.67;;
19621;SDS011;9958;33.196;-97.114;2023-03-21T06:55:48;2.88;;;1.70;;
19621;SDS011;9958;33.196;-97.114;2023-03-21T06:58:17;2.47;;;1.70;;
19621;SDS011;9958;33.196;-97.114;2023-03-21T07:00:47;5.05;;;1.60;;
19621;SDS011;9958;33.196;-97.114;2023-03-21T07:03:16;2.10;;;1.50;;
19621;SDS011;9958;33.196;-97.114;2023-03-21T07:05:44;6.70;;;1.90;;
19621;SDS011;9958;33.196;-97.114;2023-03-21T07:08:13;2.60;;;1.73;;
19621;SDS011;9958;33.196;-97.114;2023-03-21T07:10:42;3.22;;;1.70;;
19621;SDS011;9958;33.196;-97.114;2023-03-21T07:13:13;4.70;;;2.17;;
19621;SDS011;9958;33.196;-97.114;2023-03-21T07:15:41;5.97;;;1.60;;
19621;SDS011;9958;33.196;-97.114;2023-03-21T07:18:11;3.10;;;1.70;;
19621;SDS011;9958;33.196;-97.114;2023-03-21T07:20:40;2.88;;;1.80;;
19621;SDS011;9958;33.196;-97.114;2023-03-21T07:23:12;3.88;;;1.60;;
19621;SDS011;9958;33.196;-97.114;2023-03-21T07:25:41;4.28;;;1.58;;
19621;SDS011;9958;33.196;-97.114;2023-03-21T07:28:09;3.50;;;1.75;;
19621;SDS011;9958;33.196;-97.114;2023-03-21T07:30:37;2.95;;;1.40;;
19621;SDS011;9958;33.196;-97.114;2023-03-21T07:33:06;3.30;;;1.90;;
19621;SDS011;9958;33.196;-97.114;2023-03-21T07:35:36;1.95;;;1.48;;
19621;SDS011;9958;33.196;-97.114;2023-03-21T07:38:04;1.90;;;1.52;;
19621;SDS011;9958;33.196;-97.114;2023-03-21T07:40:32;2.17;;;1.35;;
19621;SDS011;9958;33.196;-97.114;2023-03-21T07:43:00;2.85;;;1.73;;
19621;SDS011;9958;33.196;-97.114;2023-03-21T07:45:29;2.92;;;1.80;;
19621;SDS011;9958;33.196;-97.114;2023-03-21T07:47:57;1.83;;;1.52;;
19621;SDS011;9958;33.196;-97.114;2023-03-21T07:50:25;2.72;;;1.48;;
19621;SDS011;9958;33.196;-97.114;2023-03-21T07:52:56;3.05;;;1.63;;
19621;SDS011;9958;33.196;-97.114;2023-03-21T07:55:24;5.47;;;1.60;;
19621;SDS011;9958;33.196;-97.114;2023-03-21T07:57:52;3.67;;;1.40;;
19621;SDS011;9958;33.196;-97.114;2023-03-21T08:00:21;2.20;;;1.48;;
19621;SDS011;9958;33.196;-97.114;2023-03-21T08:02:50;2.40;;;1.67;;
19621;SDS011;9958;33.196;-97.114;2023-03-21T08:05:20;4.35;;;1.95;;
19621;SDS011;9958;33.196;-97.114;2023-03-21T08:07:48;3.20;;;2.00;;
19621;SDS011;9958;33.196;-97.114;2023-03-21T08:10:18;3.20;;;1.52;;
19621;SDS011;9958;33.196;-97.114;2023-03-21T08:12:47;2.38;;;1.40;;
19621;SDS011;9958;33.196;-97.114;2023-03-21T08:15:15;2.38;;;1.67;;
19621;SDS011;9958;33.196;-97.114;2023-03-21T08:17:44;3.30;;;1.40;;
19621;SDS011;9958;33.196;-97.114;2023-03-21T08:20:14;3.92;;;1.55;;
19621;SDS011;9958;33.196;-97.114;2023-03-21T08:22:45;2.70;;;1.70;;
19621;SDS011;9958;33.196;-97.114;2023-03-21T08:25:14;5.22;;;1.50;;
19621;SDS011;9958;33.196;-97.114;2023-03-21T08:27:46;6.15;;;1.95;;
19621;SDS011;9958;33.196;-97.114;2023-03-21T08:30:15;3.25;;;1.88;;
19621;SDS011;9958;33.196;-97.114;2023-03-21T08:32:45;3.15;;;1.98;;
19621;SDS011;9958;33.196;-97.114;2023-03-21T08:35:15;3.72;;;2.05;;
19621;SDS011;9958;33.196;-97.114;2023-03-21T08:37:44;2.28;;;1.55;;
19621;SDS011;9958;33.196;-97.114;2023-03-21T08:40:14;4.50;;;2.58;;
19621;SDS011;9958;33.196;-97.114;2023-03-21T08:42:43;4.45;;;1.90;;
19621;SDS011;9958;33.196;-97.114;2023-03-21T08:45:13;4.80;;;2.45;;
19621;SDS011;9958;33.196;-97.114;2023-03-21T08:47:43;6.32;;;2.30;;
19621;SDS011;9958;33.196;-97.114;2023-03-21T08:50:12;1.92;;;1.60;;
19621;SDS011;9958;33.196;-97.114;2023-03-21T08:52:43;6.03;;;2.17;;
19621;SDS011;9958;33.196;-97.114;2023-03-21T08:55:12;2.95;;;1.98;;
19621;SDS011;9958;33.196;-97.114;2023-03-21T08:57:42;2.50;;;1.85;;
19621;SDS011;9958;33.196;-97.114;2023-03-21T09:00:13;2.22;;;1.98;;
19621;SDS011;9958;33.196;-97.114;2023-03-21T09:02:45;4.05;;;2.03;;
19621;SDS011;9958;33.196;-97.114;2023-03-21T09:05:16;4.03;;;2.10;;
19621;SDS011;9958;33.196;-97.114;2023-03-21T09:07:45;4.93;;;2.17;;
19621;SDS011;9958;33.196;-97.114;2023-03-21T09:10:15;3.33;;;1.92;;
19621;SDS011;9958;33.196;-97.114;2023-03-21T09:12:45;3.10;;;1.75;;
19621;SDS011;9958;33.196;-97.114;2023-03-21T09:15:15;6.88;;;2.42;;
19621;SDS011;9958;33.196;-97.114;2023-03-21T09:17:46;5.72;;;2.22;;
19621;SDS011;9958;33.196;-97.114;2023-03-21T09:20:17;2.78;;;1.98;;
19621;SDS011;9958;33.196;-97.114;2023-03-21T09:22:50;3.38;;;1.80;;
19621;SDS011;9958;33.196;-97.114;2023-03-21T09:25:19;3.92;;;1.85;;
19621;SDS011;9958;33.196;-97.114;2023-03-21T09:27:48;3.72;;;2.20;;
19621;SDS011;9958;33.196;-97.114;2023-03-21T09:30:19;4.82;;;2.30;;
19621;SDS011;9958;33.196;-97.114;2023-03-21T09:32:47;2.53;;;1.90;;
19621;SDS011;9958;33.196;-97.114;2023-03-21T09:35:18;2.67;;;1.80;;
19621;SDS011;9958;33.196;-97.114;2023-03-21T09:37:47;4.20;;;1.98;;
19621;SDS011;9958;33.196;-97.114;2023-03-21T09:40:16;5.78;;;2.40;;
19621;SDS011;9958;33.196;-97.114;2023-03-21T09:42:51;2.58;;;2.10;;
19621;SDS011;9958;33.196;-97.114;2023-03-21T09:45:28;3.38;;;2.13;;
19621;SDS011;9958;33.196;-97.114;2023-03-21T09:48:03;4.10;;;2.30;;
19621;SDS011;9958;33.196;-97.114;2023-03-21T09:50:35;4.25;;;2.28;;
19621;SDS011;9958;33.196;-97.114;2023-03-21T09:53:07;5.93;;;1.90;;
19621;SDS011;9958;33.196;-97.114;2023-03-21T09:55:39;3.42;;;1.80;;
19621;SDS011;9958;33.196;-97.114;2023-03-21T09:58:12;2.63;;;2.08;;
19621;SDS011;9958;33.196;-97.114;2023-03-21T10:00:53;3.70;;;2.17;;
19621;SDS011;9958;33.196;-97.114;2023-03-21T10:03:28;4.47;;;2.08;;
19621;SDS011;9958;33.196;-97.114;2023-03-21T10:05:59;6.15;;;2.10;;
19621;SDS011;9958;33.196;-97.114;2023-03-21T10:08:32;3.58;;;2.30;;
19621;SDS011;9958;33.196;-97.114;2023-03-21T10:11:08;3.60;;;2.20;;
19621;SDS011;9958;33.196;-97.114;2023-03-21T10:13:40;4.28;;;2.20;;
19621;SDS011;9958;33.196;-97.114;2023-03-21T10:16:15;5.53;;;1.88;;
19621;SDS011;9958;33.196;-97.114;2023-03-21T10:18:54;3.88;;;1.75;;
19621;SDS011;9958;33.196;-97.114;2023-03-21T10:21:24;6.78;;;2.33;;
19621;SDS011;9958;33.196;-97.114;2023-03-21T10:23:55;3.03;;;1.98;;
19621;SDS011;9958;33.196;-97.114;2023-03-21T10:26:26;4.18;;;2.20;;
19621;SDS011;9958;33.196;-97.114;2023-03-21T10:28:56;6.38;;;2.13;;
19621;SDS011;9958;33.196;-97.114;2023-03-21T10:31:29;3.92;;;2.70;;
19621;SDS011;9958;33.196;-97.114;2023-03-21T10:33:58;4.15;;;2.35;;
19621;SDS011;9958;33.196;-97.114;2023-03-21T10:36:42;4.93;;;2.28;;
19621;SDS011;9958;33.196;-97.114;2023-03-21T10:39:14;4.00;;;2.30;;
19621;SDS011;9958;33.196;-97.114;2023-03-21T10:41:51;5.25;;;2.15;;
19621;SDS011;9958;33.196;-97.114;2023-03-21T10:44:20;3.72;;;2.08;;
19621;SDS011;9958;33.196;-97.114;2023-03-21T10:46:56;4.68;;;2.35;;
19621;SDS011;9958;33.196;-97.114;2023-03-21T10:49:29;3.92;;;2.25;;
19621;SDS011;9958;33.196;-97.114;2023-03-21T10:51:59;5.40;;;2.20;;
19621;SDS011;9958;33.196;-97.114;2023-03-21T10:54:31;3.88;;;2.08;;
19621;SDS011;9958;33.196;-97.114;2023-03-21T10:57:02;3.65;;;2.92;;
19621;SDS011;9958;33.196;-97.114;2023-03-21T10:59:34;5.60;;;2.42;;
19621;SDS011;9958;33.196;-97.114;2023-03-21T11:02:07;3.63;;;2.40;;
19621;SDS011;9958;33.196;-97.114;2023-03-21T11:04:44;3.67;;;2.10;;
19621;SDS011;9958;33.196;-97.114;2023-03-21T11:07:13;4.32;;;2.58;;
19621;SDS011;9958;33.196;-97.114;2023-03-21T11:09:44;7.85;;;2.67;;
19621;SDS011;9958;33.196;-97.114;2023-03-21T11:12:15;4.10;;;2.63;;
19621;SDS011;9958;33.196;-97.114;2023-03-21T11:14:45;3.60;;;2.33;;
19621;SDS011;9958;33.196;-97.114;2023-03-21T11:17:20;5.78;;;2.63;;
19621;SDS011;9958;33.196;-97.114;2023-03-21T11:19:50;4.35;;;2.20;;
19621;SDS011;9958;33.196;-97.114;2023-03-21T11:22:20;5.60;;;2.83;;
19621;SDS011;9958;33.196;-97.114;2023-03-21T11:24:50;5.00;;;3.00;;
19621;SDS011;9958;33.196;-97.114;2023-03-21T11:27:20;8.40;;;2.75;;
19621;SDS011;9958;33.196;-97.114;2023-03-21T11:29:49;8.10;;;2.97;;
19621;SDS011;9958;33.196;-97.114;2023-03-21T11:32:24;3.25;;;2.15;;
19621;SDS011;9958;33.196;-97.114;2023-03-21T11:34:57;5.95;;;2.75;;
19621;SDS011;9958;33.196;-97.114;2023-03-21T11:37:30;3.33;;;2.00;;
19621;SDS011;9958;33.196;-97.114;2023-03-21T11:40:05;4.32;;;2.90;;
19621;SDS011;9958;33.196;-97.114;2023-03-21T11:42:44;9.45;;;3.08;;
19621;SDS011;9958;33.196;-97.114;2023-03-21T11:45:16;3.83;;;2.67;;
19621;SDS011;9958;33.196;-97.114;2023-03-21T11:47:48;4.22;;;2.55;;
19621;SDS011;9958;33.196;-97.114;2023-03-21T11:50:18;9.07;;;3.05;;
19621;SDS011;9958;33.196;-97.114;2023-03-21T11:53:00;4.35;;;2.65;;
19621;SDS011;9958;33.196;-97.114;2023-03-21T11:55:58;5.50;;;2.50;;
19621;SDS011;9958;33.196;-97.114;2023-03-21T11:58:36;5.57;;;3.00;;
19621;SDS011;9958;33.196;-97.114;2023-03-21T12:01:14;5.00;;;2.80;;
19621;SDS011;9958;33.196;-97.114;2023-03-21T12:04:05;5.75;;;2.85;;
19621;SDS011;9958;33.196;-97.114;2023-03-21T12:06:48;6.32;;;3.30;;
19621;SDS011;9958;33.196;-97.114;2023-03-21T12:09:31;5.85;;;2.65;;
19621;SDS011;9958;33.196;-97.114;2023-03-21T12:12:08;6.85;;;3.15;;
19621;SDS011;9958;33.196;-97.114;2023-03-21T12:14:44;9.10;;;3.10;;
19621;SDS011;9958;33.196;-97.114;2023-03-21T12:17:24;6.00;;;3.00;;
19621;SDS011;9958;33.196;-97.114;2023-03-21T12:20:05;9.65;;;2.95;;
19621;SDS011;9958;33.196;-97.114;2023-03-21T12:22:50;6.60;;;3.38;;
19621;SDS011;9958;33.196;-97.114;2023-03-21T12:25:28;6.05;;;2.63;;
19621;SDS011;9958;33.196;-97.114;2023-03-21T12:28:02;6.40;;;2.78;;
19621;SDS011;9958;33.196;-97.114;2023-03-21T12:30:45;6.20;;;2.60;;
19621;SDS011;9958;33.196;-97.114;2023-03-21T12:33:24;4.72;;;2.75;;
19621;SDS011;9958;33.196;-97.114;2023-03-21T12:36:06;4.72;;;2.90;;
19621;SDS011;9958;33.196;-97.114;2023-03-21T12:38:53;6.68;;;3.22;;
19621;SDS011;9958;33.196;-97.114;2023-03-21T12:41:32;4.72;;;2.40;;
19621;SDS011;9958;33.196;-97.114;2023-03-21T12:44:03;7.05;;;2.83;;
19621;SDS011;9958;33.196;-97.114;2023-03-21T12:46:36;4.53;;;2.92;;
19621;SDS011;9958;33.196;-97.114;2023-03-21T12:49:11;6.53;;;2.65;;
19621;SDS011;9958;33.196;-97.114;2023-03-21T12:51:47;3.03;;;2.70;;
19621;SDS011;9958;33.196;-97.114;2023-03-21T12:54:21;4.93;;;2.85;;
19621;SDS011;9958;33.196;-97.114;2023-03-21T12:56:55;8.95;;;3.20;;
19621;SDS011;9958;33.196;-97.114;2023-03-21T12:59:30;5.47;;;2.70;;
19621;SDS011;9958;33.196;-97.114;2023-03-21T13:02:06;8.13;;;2.83;;
19621;SDS011;9958;33.196;-97.114;2023-03-21T13:04:45;7.85;;;2.67;;
19621;SDS011;9958;33.196;-97.114;2023-03-21T13:07:20;7.45;;;2.75;;
19621;SDS011;9958;33.196;-97.114;2023-03-21T13:09:51;6.07;;;2.50;;
19621;SDS011;9958;33.196;-97.114;2023-03-21T13:12:40;5.18;;;2.65;;
19621;SDS011;9958;33.196;-97.114;2023-03-21T13:15:29;5.50;;;2.60;;
19621;SDS011;9958;33.196;-97.114;2023-03-21T13:18:14;7.95;;;2.53;;
19621;SDS011;9958;33.196;-97.114;2023-03-21T13:20:49;8.65;;;2.88;;
19621;SDS011;9958;33.196;-97.114;2023-03-21T13:23:22;4.63;;;2.92;;
19621;SDS011;9958;33.196;-97.114;2023-03-21T13:25:52;6.22;;;2.75;;
19621;SDS011;9958;33.196;-97.114;2023-03-21T13:28:25;5.80;;;2.67;;
19621;SDS011;9958;33.196;-97.114;2023-03-21T13:31:05;7.25;;;3.10;;
19621;SDS011;9958;33.196;-97.114;2023-03-21T13:33:44;6.15;;;2.35;;
19621;SDS011;9958;33.196;-97.114;2023-03-21T13:36:14;3.13;;;2.53;;
19621;SDS011;9958;33.196;-97.114;2023-03-21T13:38:49;6.47;;;2.92;;
19621;SDS011;9958;33.196;-97.114;2023-03-21T13:41:20;7.65;;;2.85;;
19621;SDS011;9958;33.196;-97.114;2023-03-21T13:43:54;4.30;;;2.70;;
19621;SDS011;9958;33.196;-97.114;2023-03-21T13:46:35;7.13;;;3.28;;
19621;SDS011;9958;33.196;-97.114;2023-03-21T13:49:14;5.63;;;3.00;;
19621;SDS011;9958;33.196;-97.114;2023-03-21T13:51:52;3.63;;;2.53;;
19621;SDS011;9958;33.196;-97.114;2023-03-21T13:54:25;4.30;;;2.53;;
19621;SDS011;9958;33.196;-97.114;2023-03-21T13:56:56;6.97;;;3.03;;
19621;SDS011;9958;33.196;-97.114;2023-03-21T13:59:35;4.72;;;2.88;;
19621;SDS011;9958;33.196;-97.114;2023-03-21T14:02:22;4.30;;;2.63;;
19621;SDS011;9958;33.196;-97.114;2023-03-21T14:04:57;6.40;;;3.33;;
19621;SDS011;9958;33.196;-97.114;2023-03-21T14:07:27;3.92;;;2.78;;
19621;SDS011;9958;33.196;-97.114;2023-03-21T14:10:00;6.22;;;2.95;;
19621;SDS011;9958;33.196;-97.114;2023-03-21T14:12:33;7.85;;;2.80;;
19621;SDS011;9958;33.196;-97.114;2023-03-21T14:15:07;5.65;;;2.45;;
19621;SDS011;9958;33.196;-97.114;2023-03-21T14:17:48;5.90;;;2.88;;
19621;SDS011;9958;33.196;-97.114;2023-03-21T14:20:18;4.10;;;2.80;;
19621;SDS011;9958;33.196;-97.114;2023-03-21T14:22:49;6.57;;;2.30;;
19621;SDS011;9958;33.196;-97.114;2023-03-21T14:25:20;5.38;;;3.13;;
19621;SDS011;9958;33.196;-97.114;2023-03-21T14:27:51;5.35;;;3.17;;
19621;SDS011;9958;33.196;-97.114;2023-03-21T14:30:22;3.85;;;3.40;;
19621;SDS011;9958;33.196;-97.114;2023-03-21T14:32:53;5.90;;;2.80;;
19621;SDS011;9958;33.196;-97.114;2023-03-21T14:35:27;5.13;;;2.70;;
19621;SDS011;9958;33.196;-97.114;2023-03-21T14:37:59;5.75;;;3.10;;
19621;SDS011;9958;33.196;-97.114;2023-03-21T14:40:31;7.63;;;3.38;;
19621;SDS011;9958;33.196;-97.114;2023-03-21T14:43:02;4.07;;;2.67;;
19621;SDS011;9958;33.196;-97.114;2023-03-21T14:45:33;10.10;;;3.35;;
19621;SDS011;9958;33.196;-97.114;2023-03-21T14:48:03;7.97;;;2.95;;
19621;SDS011;9958;33.196;-97.114;2023-03-21T14:50:35;4.47;;;2.60;;
19621;SDS011;9958;33.196;-97.114;2023-03-21T14:53:07;5.30;;;2.85;;
19621;SDS011;9958;33.196;-97.114;2023-03-21T14:55:43;6.32;;;3.00;;
19621;SDS011;9958;33.196;-97.114;2023-03-21T14:58:13;6.57;;;3.38;;
19621;SDS011;9958;33.196;-97.114;2023-03-21T15:00:45;6.78;;;3.03;;
19621;SDS011;9958;33.196;-97.114;2023-03-21T15:03:15;5.13;;;2.85;;
19621;SDS011;9958;33.196;-97.114;2023-03-21T15:05:45;6.80;;;3.50;;
19621;SDS011;9958;33.196;-97.114;2023-03-21T15:08:14;3.78;;;2.53;;